Dry Fork, Utah
Current Conditions -  °F | °C
As of 11:53 AM on Thursday 30 Oct 2014 (Local Time) from KVEL Reporting Station
Clear Clear  
Wind Chill: 52°   Ceiling: Unl
Heat Index: 52°   Visibility: 10mi
Dew Point: 24°   Wind: 3mph
Humidity: 34%   Direction: NA
Pressure: 30.38"   Gusts: NA
Location:  40.1055°N, 109.498°W
Report Text: KVEL 301753Z AUTO VRB03KT 10SM CLR 11/M04 A3038 RMK AO2 SLP275 T01111044 10111 21017 58003
Loading
Personal Weather Stations






























Interactive Weather Map
Tropical Storm Tracking
New forecast layout! Learn more

10-Day Weather Forecast

Advertisements
Track Severe Weather on mobile